createdAt,value
2019-01-14T00:00:05.799Z,97.23
2019-01-14T00:01:05.956Z,97.71
2019-01-14T00:02:16.389Z,97.75
2019-01-14T00:03:05.765Z,97.75
2019-01-14T00:04:05.756Z,97.23
2019-01-14T00:05:05.748Z,97.65
2019-01-14T00:06:10.153Z,97.86
2019-01-14T00:07:05.774Z,97.23
2019-01-14T00:08:05.714Z,97.23
2019-01-14T00:09:05.700Z,98.18
2019-01-14T00:10:05.699Z,97.55
2019-01-14T00:11:05.680Z,97.08
2019-01-14T00:12:05.671Z,97.23
2019-01-14T00:13:05.697Z,97.39
2019-01-14T00:14:05.650Z,97.33
2019-01-14T00:15:05.644Z,97.13
2019-01-14T00:16:05.630Z,97.33
2019-01-14T00:17:05.616Z,97.33
2019-01-14T00:18:05.607Z,97.55
2019-01-14T00:19:05.640Z,97.33
2019-01-14T00:20:05.584Z,97.13
2019-01-14T00:21:05.578Z,97.44
2019-01-14T00:22:05.564Z,97.44
2019-01-14T00:23:05.553Z,97.23
2019-01-14T00:24:05.541Z,97.33
2019-01-14T00:25:05.549Z,97.13
2019-01-14T00:26:05.514Z,97.55
2019-01-14T00:27:05.514Z,97.44
2019-01-14T00:28:05.495Z,97.55
2019-01-14T00:29:05.484Z,97.44
2019-01-14T00:30:05.476Z,97.55
2019-01-14T00:31:05.479Z,97.44
2019-01-14T00:32:05.453Z,97.44
2019-01-14T00:33:15.766Z,97.86
2019-01-14T00:34:05.431Z,97.33
2019-01-14T00:35:05.420Z,97.44
2019-01-14T00:36:05.409Z,97.44
2019-01-14T00:37:05.436Z,97.55
2019-01-14T00:38:05.393Z,97.86
2019-01-14T00:39:05.382Z,97.55
2019-01-14T00:40:05.365Z,97.55
2019-01-14T00:41:05.360Z,97.75
2019-01-14T00:42:05.351Z,97.75
2019-01-14T00:43:05.378Z,96.91
2019-01-14T00:44:05.330Z,97.02
2019-01-14T00:45:05.313Z,97.55
2019-01-14T00:46:05.311Z,97.13
2019-01-14T00:47:05.295Z,97.44
2019-01-14T00:48:05.280Z,97.55
2019-01-14T00:49:05.293Z,97.44
2019-01-14T00:50:05.262Z,97.50
2019-01-14T00:51:05.249Z,97.13
2019-01-14T00:52:05.247Z,97.23
2019-01-14T00:53:05.235Z,97.13
2019-01-14T00:54:05.223Z,97.33
2019-01-14T00:55:05.383Z,97.33
2019-01-14T00:56:05.199Z,97.13
2019-01-14T00:57:05.193Z,97.55
2019-01-14T00:58:05.188Z,97.86
2019-01-14T00:59:05.285Z,96.39
2019-01-14T01:00:05.160Z,97.13
2019-01-14T01:01:05.168Z,97.55
2019-01-14T01:02:05.136Z,96.91
2019-01-14T01:03:05.126Z,97.44
2019-01-14T01:04:15.963Z,97.75
2019-01-14T01:05:05.106Z,97.19
2019-01-14T01:06:05.096Z,96.49
2019-01-14T01:07:05.124Z,96.39
2019-01-14T01:08:05.068Z,97.55
2019-01-14T01:09:05.065Z,97.33
2019-01-14T01:10:05.049Z,96.49
2019-01-14T01:11:05.041Z,97.23
2019-01-14T01:12:05.026Z,97.13
2019-01-14T01:13:05.055Z,97.39
2019-01-14T01:14:05.011Z,96.34
2019-01-14T01:15:04.993Z,96.34
2019-01-14T01:16:04.996Z,97.86
2019-01-14T01:17:04.976Z,96.55
2019-01-14T01:18:04.975Z,96.77
2019-01-14T01:19:04.991Z,96.66
2019-01-14T01:20:04.945Z,96.45
2019-01-14T01:21:04.936Z,96.55
2019-01-14T01:22:04.926Z,96.45
2019-01-14T01:23:04.908Z,96.28
2019-01-14T01:24:04.901Z,96.77
2019-01-14T01:25:04.930Z,96.77
2019-01-14T01:26:04.876Z,97.08
2019-01-14T01:27:04.869Z,96.70
2019-01-14T01:28:04.855Z,96.55
2019-01-14T01:29:04.847Z,96.34
2019-01-14T01:30:04.841Z,97.08
2019-01-14T01:31:04.864Z,96.55
2019-01-14T01:32:04.870Z,96.77
2019-01-14T01:33:04.808Z,96.39
2019-01-14T01:34:04.798Z,96.77
2019-01-14T01:35:15.228Z,96.66
2019-01-14T01:36:04.772Z,96.77
2019-01-14T01:37:04.797Z,96.77
2019-01-14T01:38:04.753Z,96.55
2019-01-14T01:39:04.739Z,96.81
2019-01-14T01:40:04.741Z,96.77
2019-01-14T01:41:04.724Z,96.77
2019-01-14T01:42:04.716Z,96.66
2019-01-14T01:43:04.878Z,96.77
2019-01-14T01:44:04.695Z,96.81
2019-01-14T01:45:04.679Z,96.81
2019-01-14T01:46:04.666Z,96.77
2019-01-14T01:47:04.652Z,96.66
2019-01-14T01:48:04.655Z,96.77
2019-01-14T01:49:04.678Z,96.66
2019-01-14T01:50:04.621Z,96.77
2019-01-14T01:51:04.620Z,96.77
2019-01-14T01:52:04.607Z,96.77
2019-01-14T01:53:04.589Z,96.70
2019-01-14T01:54:04.589Z,96.70
2019-01-14T01:55:04.604Z,96.66
2019-01-14T01:56:04.564Z,96.77
2019-01-14T01:57:04.551Z,96.66
2019-01-14T01:58:04.542Z,96.66
2019-01-14T01:59:04.530Z,96.66
2019-01-14T02:00:04.515Z,96.77
2019-01-14T02:01:04.552Z,96.77
2019-01-14T02:02:04.494Z,96.87
2019-01-14T02:03:04.484Z,96.87
2019-01-14T02:04:04.483Z,96.77
2019-01-14T02:05:04.461Z,96.87
2019-01-14T02:06:14.717Z,96.13
2019-01-14T02:07:04.446Z,96.23
2019-01-14T02:08:04.433Z,96.55
2019-01-14T02:09:04.423Z,97.13
2019-01-14T02:10:04.410Z,96.39
2019-01-14T02:11:04.411Z,96.55
2019-01-14T02:12:04.411Z,96.45
2019-01-14T02:13:04.378Z,96.45
2019-01-14T02:14:04.374Z,96.34
2019-01-14T02:15:04.368Z,96.55
2019-01-14T02:16:04.363Z,96.70
2019-01-14T02:17:04.336Z,96.59
2019-01-14T02:18:04.367Z,96.34
2019-01-14T02:19:04.313Z,96.66
2019-01-14T02:20:04.305Z,96.77
2019-01-14T02:21:04.301Z,96.34
2019-01-14T02:22:04.292Z,96.34
2019-01-14T02:23:04.272Z,96.55
2019-01-14T02:24:04.277Z,96.66
2019-01-14T02:25:04.258Z,96.23
2019-01-14T02:26:04.243Z,96.45
2019-01-14T02:27:04.229Z,96.45
2019-01-14T02:28:04.226Z,96.34
2019-01-14T02:29:04.210Z,96.59
2019-01-14T02:30:04.241Z,96.77
2019-01-14T02:31:04.190Z,96.77
2019-01-14T02:32:04.181Z,96.77
2019-01-14T02:33:04.169Z,97.08
2019-01-14T02:34:04.160Z,96.77
2019-01-14T02:35:04.151Z,96.66
2019-01-14T02:36:04.174Z,96.45
2019-01-14T02:37:16.099Z,96.45
2019-01-14T02:38:04.112Z,96.45
2019-01-14T02:39:04.105Z,96.66
2019-01-14T02:40:04.092Z,96.55
2019-01-14T02:41:04.088Z,96.87
2019-01-14T02:42:04.108Z,96.55
2019-01-14T02:43:04.067Z,96.13
2019-01-14T02:44:04.053Z,96.55
2019-01-14T02:45:04.044Z,96.55
2019-01-14T02:46:04.026Z,96.23
2019-01-14T02:47:04.017Z,96.77
2019-01-14T02:48:04.050Z,96.55
2019-01-14T02:49:03.995Z,96.45
2019-01-14T02:50:03.989Z,96.23
2019-01-14T02:51:03.975Z,96.55
2019-01-14T02:52:03.972Z,96.55
2019-01-14T02:53:03.954Z,96.23
2019-01-14T02:54:04.120Z,96.23
2019-01-14T02:55:03.937Z,96.77
2019-01-14T02:56:03.920Z,96.66
2019-01-14T02:57:03.911Z,96.55
2019-01-14T02:58:03.905Z,96.66
2019-01-14T02:59:03.887Z,96.55
2019-01-14T03:00:03.917Z,96.13
2019-01-14T03:01:03.868Z,96.23
2019-01-14T03:02:03.866Z,96.39
2019-01-14T03:03:03.850Z,96.45
2019-01-14T03:04:03.836Z,96.59
2019-01-14T03:05:03.823Z,96.55
2019-01-14T03:06:03.861Z,96.49
2019-01-14T03:07:03.811Z,96.45
2019-01-14T03:08:15.358Z,96.34
2019-01-14T03:09:03.785Z,96.13
2019-01-14T03:10:03.784Z,96.23
2019-01-14T03:11:03.760Z,96.55
2019-01-14T03:12:03.798Z,96.45
2019-01-14T03:13:03.741Z,96.17
2019-01-14T03:14:03.726Z,96.23
2019-01-14T03:15:03.731Z,96.66
2019-01-14T03:16:03.712Z,96.55
2019-01-14T03:17:03.702Z,96.39
2019-01-14T03:18:03.731Z,96.66
2019-01-14T03:19:03.674Z,96.55
2019-01-14T03:20:03.667Z,96.55
2019-01-14T03:21:03.656Z,96.49
2019-01-14T03:22:03.646Z,96.34
2019-01-14T03:23:03.634Z,96.34
2019-01-14T03:24:03.642Z,96.77
2019-01-14T03:25:03.617Z,97.19
2019-01-14T03:26:03.599Z,96.87
2019-01-14T03:27:03.597Z,96.77
2019-01-14T03:28:03.577Z,96.59
2019-01-14T03:29:03.571Z,96.45
2019-01-14T03:30:03.644Z,96.39
2019-01-14T03:31:03.570Z,96.55
2019-01-14T03:32:03.541Z,96.45
2019-01-14T03:33:03.533Z,96.23
2019-01-14T03:34:03.517Z,96.34
2019-01-14T03:35:03.504Z,96.23
2019-01-14T03:36:03.537Z,96.45
2019-01-14T03:37:05.638Z,96.17
2019-01-14T03:38:03.479Z,96.66
2019-01-14T03:39:13.708Z,96.34
2019-01-14T03:40:03.453Z,96.34
2019-01-14T03:41:03.439Z,96.34
2019-01-14T03:42:03.469Z,96.49
2019-01-14T03:43:03.423Z,95.96
2019-01-14T03:44:03.422Z,96.87
2019-01-14T03:45:03.405Z,95.92
2019-01-14T03:46:03.388Z,96.77
2019-01-14T03:47:03.390Z,96.87
2019-01-14T03:48:03.556Z,96.77
2019-01-14T03:49:03.357Z,96.45
2019-01-14T03:50:03.348Z,96.23
2019-01-14T03:51:03.342Z,96.34
2019-01-14T03:52:03.332Z,96.23
2019-01-14T03:53:03.325Z,96.66
2019-01-14T03:54:03.347Z,95.92
2019-01-14T03:55:03.294Z,96.17
2019-01-14T03:56:03.288Z,96.55
2019-01-14T03:57:03.271Z,96.23
2019-01-14T03:58:03.268Z,96.34
2019-01-14T03:59:03.258Z,96.23
2019-01-14T04:00:03.294Z,95.92
2019-01-14T04:01:03.246Z,95.92
2019-01-14T04:02:03.229Z,95.50
2019-01-14T04:03:03.215Z,95.81
2019-01-14T04:04:03.205Z,95.71
2019-01-14T04:05:03.195Z,95.71
2019-01-14T04:06:03.354Z,95.60
2019-01-14T04:07:03.167Z,95.60
2019-01-14T04:08:03.161Z,95.71
2019-01-14T04:09:03.151Z,95.60
2019-01-14T04:10:15.101Z,96.03
2019-01-14T04:11:03.123Z,95.50
2019-01-14T04:12:03.273Z,96.03
2019-01-14T04:13:03.108Z,95.50
2019-01-14T04:14:03.095Z,95.60
2019-01-14T04:15:03.088Z,95.60
2019-01-14T04:16:03.069Z,95.71
2019-01-14T04:17:03.065Z,95.71
2019-01-14T04:18:03.091Z,95.60
2019-01-14T04:19:03.043Z,95.71
2019-01-14T04:20:03.032Z,95.18
2019-01-14T04:21:03.022Z,95.29
2019-01-14T04:22:03.011Z,95.39
2019-01-14T04:23:03.008Z,95.39
2019-01-14T04:24:03.005Z,95.18
2019-01-14T04:25:02.981Z,95.18
2019-01-14T04:26:02.968Z,95.71
2019-01-14T04:27:02.956Z,95.39
2019-01-14T04:28:02.945Z,95.29
2019-01-14T04:29:02.934Z,95.71
2019-01-14T04:30:03.010Z,95.71
2019-01-14T04:31:02.909Z,95.71
2019-01-14T04:32:02.906Z,95.60
2019-01-14T04:33:02.890Z,96.13
2019-01-14T04:34:02.885Z,95.92
2019-01-14T04:35:02.868Z,96.34
2019-01-14T04:36:02.933Z,96.03
2019-01-14T04:37:02.856Z,95.81
2019-01-14T04:38:02.841Z,95.92
2019-01-14T04:39:02.828Z,95.92
2019-01-14T04:40:02.814Z,95.50
2019-01-14T04:41:12.787Z,95.60
2019-01-14T04:42:02.795Z,95.71
2019-01-14T04:43:02.790Z,95.81
2019-01-14T04:44:02.775Z,95.92
2019-01-14T04:45:02.798Z,95.92
2019-01-14T04:46:02.759Z,95.67
2019-01-14T04:47:02.782Z,95.92
2019-01-14T04:48:02.736Z,95.81
2019-01-14T04:49:02.734Z,95.81
2019-01-14T04:50:02.710Z,95.60
2019-01-14T04:51:02.700Z,95.92
2019-01-14T04:52:02.693Z,95.56
2019-01-14T04:53:02.717Z,95.60
2019-01-14T04:54:02.682Z,95.50
2019-01-14T04:55:02.661Z,95.39
2019-01-14T04:56:02.647Z,95.50
2019-01-14T04:57:02.634Z,95.81
2019-01-14T04:58:02.634Z,95.39
2019-01-14T04:59:02.654Z,95.92
2019-01-14T05:00:02.605Z,95.92
2019-01-14T05:01:02.604Z,95.60
2019-01-14T05:02:02.584Z,95.39
2019-01-14T05:03:02.588Z,95.56
2019-01-14T05:04:02.567Z,95.60
2019-01-14T05:05:02.598Z,95.60
2019-01-14T05:06:02.547Z,96.03
2019-01-14T05:07:02.531Z,95.71
2019-01-14T05:08:02.525Z,95.92
2019-01-14T05:09:02.530Z,95.92
2019-01-14T05:10:02.526Z,95.71
2019-01-14T05:11:02.530Z,95.50
2019-01-14T05:12:13.301Z,95.77
2019-01-14T05:13:02.472Z,95.92
2019-01-14T05:14:02.461Z,96.03
2019-01-14T05:15:02.450Z,96.03
2019-01-14T05:16:02.443Z,96.45
2019-01-14T05:17:02.447Z,96.34
2019-01-14T05:18:02.418Z,95.77
2019-01-14T05:19:02.424Z,95.29
2019-01-14T05:20:02.392Z,95.92
2019-01-14T05:21:02.395Z,96.34
2019-01-14T05:22:02.376Z,96.72
2019-01-14T05:23:02.590Z,96.66
2019-01-14T05:24:02.356Z,95.77
2019-01-14T05:25:02.347Z,96.23
2019-01-14T05:26:02.332Z,96.34
2019-01-14T05:27:02.316Z,96.55
2019-01-14T05:28:02.307Z,95.87
2019-01-14T05:29:02.335Z,95.98
2019-01-14T05:30:02.290Z,95.98
2019-01-14T05:31:02.280Z,96.13
2019-01-14T05:32:02.271Z,96.87
2019-01-14T05:33:02.261Z,96.51
2019-01-14T05:34:02.242Z,96.23
2019-01-14T05:35:02.297Z,96.34
2019-01-14T05:36:02.225Z,96.66
2019-01-14T05:37:02.211Z,96.23
2019-01-14T05:38:02.203Z,96.13
2019-01-14T05:39:02.202Z,96.03
2019-01-14T05:40:02.179Z,96.55
2019-01-14T05:41:02.211Z,96.41
2019-01-14T05:42:02.156Z,96.41
2019-01-14T05:43:13.834Z,96.61
2019-01-14T05:44:02.149Z,96.41
2019-01-14T05:45:02.177Z,96.41
2019-01-14T05:46:02.121Z,96.19
2019-01-14T05:47:02.148Z,96.19
2019-01-14T05:48:02.118Z,96.23
2019-01-14T05:49:02.111Z,97.03
2019-01-14T05:50:02.077Z,96.72
2019-01-14T05:51:02.065Z,96.61
2019-01-14T05:52:02.061Z,96.30
2019-01-14T05:53:02.076Z,96.51
2019-01-14T05:54:02.047Z,96.61
2019-01-14T05:55:02.018Z,96.30
2019-01-14T05:56:02.015Z,96.51
2019-01-14T05:57:02.014Z,96.41
2019-01-14T05:58:01.989Z,96.09
2019-01-14T05:59:02.163Z,96.19
2019-01-14T06:00:02.025Z,96.19
2019-01-14T06:01:01.995Z,96.09
2019-01-14T06:02:01.953Z,96.41
2019-01-14T06:03:01.935Z,96.30
2019-01-14T06:04:01.958Z,96.30
2019-01-14T06:05:01.964Z,96.61
2019-01-14T06:06:01.966Z,96.30
2019-01-14T06:07:01.898Z,96.09
2019-01-14T06:08:01.883Z,96.41
2019-01-14T06:09:01.871Z,96.41
2019-01-14T06:10:01.928Z,96.25
2019-01-14T06:11:02.034Z,96.41
2019-01-14T06:12:01.850Z,97.03
2019-01-14T06:13:01.878Z,97.03
2019-01-14T06:14:13.046Z,96.30
2019-01-14T06:15:01.812Z,96.61
2019-01-14T06:16:01.805Z,96.30
2019-01-14T06:17:01.974Z,96.41
2019-01-14T06:18:01.779Z,96.51
2019-01-14T06:19:01.780Z,96.41
2019-01-14T06:20:01.755Z,96.09
2019-01-14T06:21:01.747Z,96.51
2019-01-14T06:22:01.746Z,96.41
2019-01-14T06:23:01.749Z,96.51
2019-01-14T06:24:01.711Z,96.09
2019-01-14T06:25:01.703Z,96.41
2019-01-14T06:26:01.697Z,96.61
2019-01-14T06:27:01.689Z,96.51
2019-01-14T06:28:01.672Z,96.09
2019-01-14T06:29:01.697Z,96.30
2019-01-14T06:30:01.653Z,96.09
2019-01-14T06:31:01.636Z,96.41
2019-01-14T06:32:01.634Z,96.61
2019-01-14T06:33:01.616Z,96.93
2019-01-14T06:34:01.604Z,96.72
2019-01-14T06:35:01.699Z,96.61
2019-01-14T06:36:01.589Z,96.61
2019-01-14T06:37:01.574Z,96.72
2019-01-14T06:38:01.567Z,96.61
2019-01-14T06:39:01.589Z,96.72
2019-01-14T06:40:01.548Z,96.61
2019-01-14T06:41:01.579Z,96.67
2019-01-14T06:42:01.520Z,96.51
2019-01-14T06:43:01.508Z,96.51
2019-01-14T06:44:01.498Z,96.25
2019-01-14T06:45:12.062Z,96.67
2019-01-14T06:46:01.484Z,96.89
2019-01-14T06:47:01.523Z,96.78
2019-01-14T06:48:01.491Z,96.47
2019-01-14T06:49:01.459Z,96.47
2019-01-14T06:50:01.441Z,96.67
2019-01-14T06:51:01.440Z,96.41
2019-01-14T06:52:01.427Z,96.36
2019-01-14T06:53:01.479Z,96.67
2019-01-14T06:54:01.396Z,96.36
2019-01-14T06:55:01.382Z,96.78
2019-01-14T06:56:01.377Z,96.67
2019-01-14T06:57:01.363Z,96.78
2019-01-14T06:58:01.352Z,96.78
2019-01-14T06:59:01.361Z,96.36
2019-01-14T07:00:01.332Z,96.67
2019-01-14T07:01:01.322Z,96.67
2019-01-14T07:02:01.310Z,96.78
2019-01-14T07:03:01.301Z,96.47
2019-01-14T07:04:01.287Z,96.15
2019-01-14T07:05:01.298Z,96.67
2019-01-14T07:06:01.270Z,96.67
2019-01-14T07:07:01.264Z,96.67
2019-01-14T07:08:01.244Z,96.21
2019-01-14T07:09:01.233Z,96.42
2019-01-14T07:10:01.227Z,96.57
2019-01-14T07:11:01.258Z,96.84
2019-01-14T07:12:01.199Z,96.95
2019-01-14T07:13:01.211Z,96.36
2019-01-14T07:14:01.179Z,96.78
2019-01-14T07:15:01.172Z,96.67
2019-01-14T07:16:11.380Z,96.84
2019-01-14T07:17:01.152Z,96.53
2019-01-14T07:18:01.138Z,96.53
2019-01-14T07:19:01.131Z,96.63
2019-01-14T07:20:01.113Z,96.00
2019-01-14T07:21:01.111Z,96.21
2019-01-14T07:22:01.120Z,96.11
2019-01-14T07:23:01.087Z,96.21
2019-01-14T07:24:01.083Z,96.31
2019-01-14T07:25:01.088Z,96.31
2019-01-14T07:26:01.072Z,96.53
2019-01-14T07:27:01.043Z,96.63
2019-01-14T07:28:01.119Z,96.53
2019-01-14T07:29:01.017Z,96.63
2019-01-14T07:30:01.013Z,96.63
2019-01-14T07:31:01.000Z,96.73
2019-01-14T07:32:00.991Z,96.84
2019-01-14T07:33:00.977Z,96.53
2019-01-14T07:34:01.009Z,96.95
2019-01-14T07:35:02.206Z,96.84
2019-01-14T07:36:00.948Z,96.00
2019-01-14T07:37:00.934Z,96.53
2019-01-14T07:38:06.591Z,96.53
2019-01-14T07:39:01.955Z,96.53
2019-01-14T07:40:00.908Z,96.42
2019-01-14T07:41:00.895Z,96.53
2019-01-14T07:42:00.889Z,96.11
2019-01-14T07:43:00.869Z,96.06
2019-01-14T07:44:00.862Z,96.06
2019-01-14T07:45:00.891Z,96.17
2019-01-14T07:46:00.837Z,96.59
2019-01-14T07:47:13.105Z,96.17
2019-01-14T07:48:00.819Z,96.27
2019-01-14T07:49:00.804Z,96.06
2019-01-14T07:50:00.794Z,96.48
2019-01-14T07:51:00.965Z,96.37
2019-01-14T07:52:00.779Z,96.37
2019-01-14T07:53:00.764Z,96.48
2019-01-14T07:54:00.767Z,96.37
2019-01-14T07:55:00.742Z,96.27
2019-01-14T07:56:00.738Z,96.17
2019-01-14T07:57:00.988Z,96.27
2019-01-14T07:58:00.706Z,96.48
2019-01-14T07:59:00.696Z,96.69
2019-01-14T08:00:00.690Z,96.06
2019-01-14T08:01:00.680Z,96.27
2019-01-14T08:02:00.679Z,96.48
2019-01-14T08:03:00.694Z,96.59
2019-01-14T08:04:00.653Z,96.69
2019-01-14T08:05:00.635Z,96.75
2019-01-14T08:06:00.621Z,96.12
2019-01-14T08:07:00.612Z,96.55
2019-01-14T08:08:00.609Z,96.48
2019-01-14T08:09:00.648Z,96.75
2019-01-14T08:10:00.589Z,96.12
2019-01-14T08:11:00.602Z,96.86
2019-01-14T08:12:00.556Z,96.12
2019-01-14T08:13:00.546Z,96.44
2019-01-14T08:14:00.536Z,96.33
2019-01-14T08:15:00.573Z,96.44
2019-01-14T08:16:00.515Z,96.33
2019-01-14T08:17:00.520Z,96.02
2019-01-14T08:18:11.158Z,96.44
2019-01-14T08:19:00.487Z,96.65
2019-01-14T08:20:00.489Z,96.55
2019-01-14T08:21:00.500Z,96.44
2019-01-14T08:22:00.466Z,96.55
2019-01-14T08:23:00.445Z,96.86
2019-01-14T08:24:00.435Z,96.61
2019-01-14T08:25:00.419Z,96.23
2019-01-14T08:26:00.417Z,96.50
2019-01-14T08:27:00.432Z,96.33
2019-01-14T08:28:00.404Z,96.23
2019-01-14T08:29:00.575Z,96.50
2019-01-14T08:30:00.373Z,96.65
2019-01-14T08:31:00.354Z,96.39
2019-01-14T08:32:00.367Z,96.29
2019-01-14T08:33:00.374Z,96.50
2019-01-14T08:34:00.360Z,96.19
2019-01-14T08:35:00.311Z,96.19
2019-01-14T08:36:00.321Z,95.97
2019-01-14T08:37:00.842Z,96.29
2019-01-14T08:38:00.282Z,96.71
2019-01-14T08:39:00.314Z,96.39
2019-01-14T08:40:00.257Z,96.71
2019-01-14T08:41:00.248Z,96.39
2019-01-14T08:42:00.238Z,96.81
2019-01-14T08:43:00.233Z,96.50
2019-01-14T08:44:00.214Z,96.35
2019-01-14T08:45:00.363Z,96.67
2019-01-14T08:46:00.197Z,96.45
2019-01-14T08:47:00.186Z,96.77
2019-01-14T08:48:00.184Z,96.45
2019-01-14T08:49:10.146Z,96.25
2019-01-14T08:50:00.285Z,96.14
2019-01-14T08:51:00.160Z,96.25
2019-01-14T08:52:00.132Z,96.14
2019-01-14T08:53:00.122Z,96.20
2019-01-14T08:54:00.116Z,95.72
2019-01-14T08:55:00.230Z,95.57
2019-01-14T08:56:00.103Z,96.14
2019-01-14T08:57:00.125Z,96.10
2019-01-14T08:58:00.087Z,96.41
2019-01-14T08:59:00.063Z,96.14
2019-01-14T09:00:00.056Z,96.31
2019-01-14T09:01:00.033Z,96.31
2019-01-14T09:02:00.027Z,95.99
2019-01-14T09:03:00.090Z,96.10
2019-01-14T09:04:00.035Z,96.10
2019-01-14T09:04:59.998Z,96.10
2019-01-14T09:05:59.986Z,95.89
2019-01-14T09:06:59.977Z,95.99
2019-01-14T09:07:59.989Z,96.10
2019-01-14T09:08:59.969Z,96.20
2019-01-14T09:09:59.944Z,96.10
2019-01-14T09:10:59.933Z,95.78
2019-01-14T09:11:59.926Z,95.89
2019-01-14T09:12:59.918Z,95.84
2019-01-14T09:13:59.904Z,96.05
2019-01-14T09:14:59.933Z,95.64
2019-01-14T09:15:59.915Z,95.42
2019-01-14T09:16:59.869Z,96.37
2019-01-14T09:18:02.957Z,96.69
2019-01-14T09:18:59.846Z,96.10
2019-01-14T09:20:12.396Z,96.26
2019-01-14T09:20:59.828Z,96.58
2019-01-14T09:21:59.827Z,95.95
2019-01-14T09:22:59.805Z,95.95
2019-01-14T09:23:59.800Z,96.47
2019-01-14T09:24:59.789Z,96.58
2019-01-14T09:25:59.815Z,96.47
2019-01-14T09:26:59.783Z,96.16
2019-01-14T09:27:59.753Z,96.47
2019-01-14T09:28:59.745Z,95.74
2019-01-14T09:29:59.728Z,95.70
2019-01-14T09:31:00.350Z,96.05
2019-01-14T09:32:00.039Z,96.01
2019-01-14T09:32:59.701Z,95.90
2019-01-14T09:33:59.704Z,96.33
2019-01-14T09:34:59.674Z,95.90
2019-01-14T09:35:59.671Z,96.01
2019-01-14T09:36:59.656Z,95.48
2019-01-14T09:37:59.777Z,95.59
2019-01-14T09:38:59.653Z,95.84
2019-01-14T09:39:59.625Z,95.80
2019-01-14T09:41:00.347Z,95.70
2019-01-14T09:41:59.601Z,95.48
2019-01-14T09:42:59.610Z,95.90
2019-01-14T09:43:59.749Z,95.59
2019-01-14T09:44:59.571Z,95.23
2019-01-14T09:45:59.571Z,95.13
2019-01-14T09:46:59.548Z,95.19
2019-01-14T09:47:59.602Z,93.76
2019-01-14T09:48:59.533Z,94.35
2019-01-14T09:49:59.691Z,93.87
2019-01-14T09:51:10.838Z,94.18
2019-01-14T09:51:59.492Z,94.24
2019-01-14T09:52:59.485Z,94.14
2019-01-14T09:53:59.481Z,93.72
2019-01-14T09:54:59.467Z,95.02
2019-01-14T09:55:59.477Z,94.45
2019-01-14T09:56:59.508Z,94.04
2019-01-14T09:57:59.447Z,94.08
2019-01-14T09:58:59.423Z,94.24
2019-01-14T09:59:59.410Z,93.76
2019-01-14T10:00:59.409Z,93.87
2019-01-14T10:01:59.576Z,94.56
2019-01-14T10:02:59.376Z,94.77
2019-01-14T10:03:59.429Z,94.56
2019-01-14T10:04:59.368Z,94.56
2019-01-14T10:05:59.352Z,94.14
2019-01-14T10:06:59.359Z,94.04
2019-01-14T10:07:59.373Z,93.72
2019-01-14T10:08:59.320Z,94.24
2019-01-14T10:09:59.313Z,94.77
2019-01-14T10:10:59.299Z,94.24
2019-01-14T10:11:59.303Z,94.20
2019-01-14T10:12:59.274Z,94.14
2019-01-14T10:13:59.302Z,93.68
2019-01-14T10:14:59.257Z,93.36
2019-01-14T10:15:59.242Z,93.47
2019-01-14T10:16:59.232Z,93.26
2019-01-14T10:17:59.232Z,93.78
2019-01-14T10:18:59.204Z,93.15
2019-01-14T10:19:59.375Z,94.10
2019-01-14T10:20:59.192Z,94.20
2019-01-14T10:22:10.063Z,94.04
2019-01-14T10:22:59.164Z,94.20
2019-01-14T10:23:59.164Z,93.78
2019-01-14T10:24:59.152Z,93.26
2019-01-14T10:25:59.168Z,93.99
2019-01-14T10:26:59.124Z,94.67
2019-01-14T10:27:59.126Z,94.98
2019-01-14T10:28:59.097Z,94.98
2019-01-14T10:29:59.096Z,94.77
2019-01-14T10:30:59.091Z,95.29
2019-01-14T10:31:59.108Z,95.82
2019-01-14T10:32:59.058Z,95.29
2019-01-14T10:33:59.050Z,94.87
2019-01-14T10:34:59.043Z,95.08
2019-01-14T10:35:59.031Z,95.25
2019-01-14T10:36:59.019Z,94.83
2019-01-14T10:37:59.055Z,95.40
2019-01-14T10:38:58.994Z,95.08
2019-01-14T10:39:58.991Z,95.15
2019-01-14T10:40:58.978Z,95.15
2019-01-14T10:41:58.968Z,94.98
2019-01-14T10:42:58.958Z,94.62
2019-01-14T10:43:58.979Z,94.41
2019-01-14T10:44:58.928Z,94.87
2019-01-14T10:45:58.921Z,94.93
2019-01-14T10:46:58.909Z,94.93
2019-01-14T10:47:58.947Z,94.93
2019-01-14T10:48:58.951Z,94.83
2019-01-14T10:49:58.939Z,95.04
2019-01-14T10:50:58.869Z,94.51
2019-01-14T10:51:58.894Z,94.35
2019-01-14T10:53:12.453Z,95.15
2019-01-14T10:54:05.821Z,94.93
2019-01-14T10:54:58.822Z,94.83
2019-01-14T10:55:58.855Z,94.73
2019-01-14T10:57:07.314Z,94.73
2019-01-14T10:57:58.791Z,94.83
2019-01-14T10:58:58.776Z,95.15
2019-01-14T10:59:58.787Z,95.36
2019-01-14T11:00:58.789Z,95.88
2019-01-14T11:01:58.927Z,95.67
2019-01-14T11:02:58.766Z,95.04
2019-01-14T11:03:58.837Z,95.78
2019-01-14T11:04:58.728Z,95.78
2019-01-14T11:05:58.732Z,95.92
2019-01-14T11:06:58.762Z,96.24
2019-01-14T11:07:58.801Z,96.34
2019-01-14T11:09:05.699Z,96.09
2019-01-14T11:09:59.664Z,96.19
2019-01-14T11:10:58.651Z,96.34
2019-01-14T11:11:58.645Z,96.09
2019-01-14T11:12:58.646Z,96.19
2019-01-14T11:13:58.651Z,96.09
2019-01-14T11:15:02.789Z,96.19
2019-01-14T11:15:58.661Z,96.24
2019-01-14T11:16:58.588Z,95.78
2019-01-14T11:17:58.580Z,96.30
2019-01-14T11:18:58.566Z,96.30
2019-01-14T11:19:58.619Z,96.51
2019-01-14T11:20:58.544Z,95.88
2019-01-14T11:21:58.530Z,96.09
2019-01-14T11:22:58.525Z,96.24
2019-01-14T11:23:58.512Z,95.98
2019-01-14T11:24:58.540Z,96.09
2019-01-14T11:25:58.508Z,95.78
2019-01-14T11:26:58.483Z,95.88
2019-01-14T11:28:08.946Z,95.67
2019-01-14T11:28:58.464Z,96.09
2019-01-14T11:29:58.442Z,95.84
2019-01-14T11:30:58.438Z,95.78
2019-01-14T11:31:58.461Z,95.78
2019-01-14T11:32:58.423Z,96.09
2019-01-14T11:33:58.412Z,96.09
2019-01-14T11:34:58.400Z,96.72
2019-01-14T11:35:58.396Z,96.72
2019-01-14T11:36:58.373Z,96.72
2019-01-14T11:37:58.374Z,96.51
2019-01-14T11:39:04.739Z,96.51
2019-01-14T11:39:59.363Z,97.14
2019-01-14T11:40:58.324Z,97.14
2019-01-14T11:41:58.314Z,96.83
2019-01-14T11:42:58.307Z,97.14
2019-01-14T11:43:58.343Z,97.14
2019-01-14T11:44:58.289Z,96.93
2019-01-14T11:45:58.277Z,96.93
2019-01-14T11:46:58.260Z,96.93
2019-01-14T11:47:58.255Z,97.09
2019-01-14T11:48:58.251Z,96.99
2019-01-14T11:49:58.278Z,96.61
2019-01-14T11:50:58.226Z,96.78
2019-01-14T11:51:58.218Z,96.72
2019-01-14T11:52:58.207Z,96.57
2019-01-14T11:53:58.188Z,97.09
2019-01-14T11:54:58.176Z,97.09
2019-01-14T11:55:58.346Z,97.09
2019-01-14T11:56:58.153Z,96.78
2019-01-14T11:57:58.146Z,96.99
2019-01-14T11:59:08.286Z,96.99
2019-01-14T11:59:58.129Z,96.89
2019-01-14T12:00:58.111Z,96.99
2019-01-14T12:01:58.142Z,97.35
2019-01-14T12:02:58.097Z,97.20
2019-01-14T12:03:58.095Z,97.41
2019-01-14T12:04:58.069Z,97.83
2019-01-14T12:05:58.059Z,97.83
2019-01-14T12:06:58.048Z,98.04
2019-01-14T12:07:58.092Z,97.83
2019-01-14T12:08:58.051Z,98.25
2019-01-14T12:09:58.016Z,97.83
2019-01-14T12:10:58.008Z,98.04
2019-01-14T12:11:58.008Z,98.04
2019-01-14T12:12:57.987Z,98.25
2019-01-14T12:13:57.997Z,97.41
2019-01-14T12:14:57.963Z,97.52
2019-01-14T12:15:57.953Z,98.14
2019-01-14T12:16:57.942Z,98.04
2019-01-14T12:17:57.930Z,98.14
2019-01-14T12:18:57.918Z,97.41
2019-01-14T12:19:57.948Z,97.93
2019-01-14T12:20:57.909Z,97.83
2019-01-14T12:21:57.888Z,97.62
2019-01-14T12:22:57.882Z,97.83
2019-01-14T12:23:57.871Z,97.83
2019-01-14T12:24:57.903Z,98.04
2019-01-14T12:25:57.884Z,97.62
2019-01-14T12:26:57.837Z,97.93
2019-01-14T12:27:57.823Z,98.35
2019-01-14T12:28:57.812Z,97.93
2019-01-14T12:30:10.121Z,98.50
2019-01-14T12:30:57.791Z,98.04
2019-01-14T12:31:57.884Z,98.35
2019-01-14T12:32:57.774Z,98.04
2019-01-14T12:33:57.756Z,98.35
2019-01-14T12:34:57.758Z,98.46
2019-01-14T12:35:57.735Z,98.35
2019-01-14T12:36:57.730Z,98.35
2019-01-14T12:37:57.775Z,98.35
2019-01-14T12:38:57.707Z,98.35
2019-01-14T12:39:57.695Z,98.25
2019-01-14T12:40:57.685Z,98.25
2019-01-14T12:41:57.670Z,98.25
2019-01-14T12:42:57.666Z,98.04
2019-01-14T12:43:57.702Z,98.25
2019-01-14T12:44:57.648Z,98.46
2019-01-14T12:45:57.634Z,98.46
2019-01-14T12:46:57.625Z,98.25
2019-01-14T12:47:57.609Z,98.14
2019-01-14T12:48:57.605Z,97.72
2019-01-14T12:49:57.623Z,98.25
2019-01-14T12:50:57.574Z,98.46
2019-01-14T12:51:57.581Z,98.25